Time;durP1;ratioP1;P1;durP2;ratioP2;P2;SDS_P1;SDS_P2;PMS_P1;PMS_P2;Temp;Humidity;BMP_temperature;BMP_pressure;BME280_temperature;BME280_humidity;BME280_pressure;Samples;Min_cycle;Max_cycle;Signal;HPM_P1;HPM_P2
2024/01/11 00:02:14;;;;;;;;;44.25;39.50;;;;;;;;5084715;27;45992;-78
2024/01/11 00:04:40;;;;;;;;;51.50;43.00;;;;;;;;5103455;27;46531;-77
2024/01/11 00:07:05;;;;;;;;;41.25;39.00;;;;;;;;5104029;27;45234;-77
2024/01/11 00:09:30;;;;;;;;;50.75;38.75;;;;;;;;5104007;27;45185;-76
2024/01/11 00:11:55;;;;;;;;;47.75;41.25;;;;;;;;5103825;27;45216;-76
2024/01/11 00:14:20;;;;;;;;;42.25;40.00;;;;;;;;5102661;27;45323;-77
2024/01/11 00:16:46;;;;;;;;;48.25;41.75;;;;;;;;5102732;27;45338;-77
2024/01/11 00:19:11;;;;;;;;;45.00;38.50;;;;;;;;5103209;27;45574;-77
2024/01/11 00:21:36;;;;;;;;;55.25;44.00;;;;;;;;5105050;27;45370;-76
2024/01/11 00:24:01;;;;;;;;;53.50;45.50;;;;;;;;5106186;27;45309;-77
2024/01/11 00:26:27;;;;;;;;;49.00;42.50;;;;;;;;5105430;27;45326;-77
2024/01/11 00:28:52;;;;;;;;;52.00;43.25;;;;;;;;5106569;27;45575;-77
2024/01/11 00:31:17;;;;;;;;;52.00;43.75;;;;;;;;5106143;27;45436;-77
2024/01/11 00:33:42;;;;;;;;;49.50;43.50;;;;;;;;5105816;27;45265;-77
2024/01/11 00:36:07;;;;;;;;;48.25;45.25;;;;;;;;5104209;27;45333;-76
2024/01/11 00:38:32;;;;;;;;;44.00;40.25;;;;;;;;5106223;27;45290;-77
2024/01/11 00:40:58;;;;;;;;;48.75;42.50;;;;;;;;5105488;27;45569;-77
2024/01/11 00:43:23;;;;;;;;;46.25;38.75;;;;;;;;5106066;27;45449;-77
2024/01/11 00:45:48;;;;;;;;;50.75;42.50;;;;;;;;5106159;27;45228;-76
2024/01/11 00:48:13;;;;;;;;;41.00;40.00;;;;;;;;5107073;27;45324;-77
2024/01/11 00:50:38;;;;;;;;;51.25;43.00;;;;;;;;5088868;27;45490;-77
2024/01/11 00:53:04;;;;;;;;;36.00;35.25;;;;;;;;5106337;27;45417;-76
2024/01/11 00:55:29;;;;;;;;;49.00;43.25;;;;;;;;5087883;27;45237;-78
2024/01/11 00:57:54;;;;;;;;;43.75;35.50;;;;;;;;5094967;27;45310;-77
2024/01/11 01:00:19;;;;;;;;;51.50;42.00;;;;;;;;5087412;28;45482;-77
2024/01/11 01:02:45;;;;;;;;;48.00;39.50;;;;;;;;5087211;28;46114;-76
2024/01/11 01:05:10;;;;;;;;;48.75;43.75;;;;;;;;5086845;28;45417;-77
2024/01/11 01:07:35;;;;;;;;;48.75;41.50;;;;;;;;5086799;28;45816;-76
2024/01/11 01:10:01;;;;;;;;;46.50;39.50;;;;;;;;5068952;28;45452;-76
2024/01/11 01:12:26;;;;;;;;;50.25;43.25;;;;;;;;5087165;28;45913;-77
2024/01/11 01:14:52;;;;;;;;;40.00;38.00;;;;;;;;5086548;28;45218;-76
2024/01/11 01:17:17;;;;;;;;;47.50;42.75;;;;;;;;5087529;28;45292;-77
2024/01/11 01:19:42;;;;;;;;;47.50;43.25;;;;;;;;5088446;28;45430;-78
2024/01/11 01:22:07;;;;;;;;;51.75;44.00;;;;;;;;5089612;28;46142;-76
2024/01/11 01:24:32;;;;;;;;;47.75;42.25;;;;;;;;5071699;28;45205;-77
2024/01/11 01:26:58;;;;;;;;;56.50;45.00;;;;;;;;5071620;28;45245;-76
2024/01/11 01:29:23;;;;;;;;;49.75;43.50;;;;;;;;5074716;28;45200;-77
2024/01/11 01:31:49;;;;;;;;;44.50;39.75;;;;;;;;5079864;28;45443;-76
2024/01/11 01:34:14;;;;;;;;;44.75;42.25;;;;;;;;5080760;28;45200;-77
2024/01/11 01:36:40;;;;;;;;;35.25;33.00;;;;;;;;5081044;28;45154;-77
2024/01/11 01:39:05;;;;;;;;;48.00;42.25;;;;;;;;5083219;28;45375;-77
2024/01/11 01:41:30;;;;;;;;;44.75;40.00;;;;;;;;5065452;28;47129;-77
2024/01/11 01:43:55;;;;;;;;;44.75;39.75;;;;;;;;5066301;28;44717;-77
2024/01/11 01:46:23;;;;;;;;;53.00;45.75;;;;;;;;5066988;28;45182;-76
2024/01/11 01:48:48;;;;;;;;;49.50;40.75;;;;;;;;5066010;28;46480;-78
2024/01/11 01:51:14;;;;;;;;;41.75;38.00;;;;;;;;5086184;28;46299;-78
2024/01/11 01:53:39;;;;;;;;;46.25;41.00;;;;;;;;5103853;28;45281;-77
2024/01/11 01:56:05;;;;;;;;;50.25;44.50;;;;;;;;5103245;28;45432;-77
2024/01/11 01:58:31;;;;;;;;;45.00;41.00;;;;;;;;5122679;27;45407;-78
2024/01/11 02:00:57;;;;;;;;;48.75;41.75;;;;;;;;5107495;27;46968;-77
2024/01/11 02:03:24;;;;;;;;;44.25;41.00;;;;;;;;5126289;27;45266;-77
2024/01/11 02:05:51;;;;;;;;;50.75;44.00;;;;;;;;5125750;27;45200;-78
2024/01/11 02:08:19;;;;;;;;;45.00;40.50;;;;;;;;5125769;27;45471;-77
2024/01/11 02:10:45;;;;;;;;;45.50;42.25;;;;;;;;5106105;27;46007;-77
2024/01/11 02:13:11;;;;;;;;;45.75;40.75;;;;;;;;5107680;27;45313;-78
2024/01/11 02:15:36;;;;;;;;;45.25;38.25;;;;;;;;5107015;27;45153;-77
2024/01/11 02:18:01;;;;;;;;;51.25;42.75;;;;;;;;5125567;27;45430;-77
2024/01/11 02:20:27;;;;;;;;;48.50;43.25;;;;;;;;5125173;27;45412;-77
2024/01/11 02:22:56;;;;;;;;;41.00;39.25;;;;;;;;5125546;27;45219;-77
2024/01/11 02:25:21;;;;;;;;;49.00;43.00;;;;;;;;5107714;27;45369;-77
2024/01/11 02:27:47;;;;;;;;;41.25;38.25;;;;;;;;5125996;27;45452;-77
2024/01/11 02:30:12;;;;;;;;;54.50;45.50;;;;;;;;5107388;27;46286;-76
2024/01/11 02:32:38;;;;;;;;;50.75;44.25;;;;;;;;5125399;27;44707;-77
2024/01/11 02:35:03;;;;;;;;;49.50;41.50;;;;;;;;5108187;27;44687;-77
2024/01/11 02:37:29;;;;;;;;;48.75;42.50;;;;;;;;5125310;27;44813;-77
2024/01/11 02:39:54;;;;;;;;;37.25;35.50;;;;;;;;5106702;27;45253;-77
2024/01/11 02:42:20;;;;;;;;;46.75;43.50;;;;;;;;5066018;28;44677;-77
2024/01/11 02:44:45;;;;;;;;;42.75;39.75;;;;;;;;5066523;28;45300;-77
2024/01/11 02:47:10;;;;;;;;;47.25;40.75;;;;;;;;5066284;28;45538;-77
2024/01/11 02:49:35;;;;;;;;;40.00;34.50;;;;;;;;5086518;28;45294;-77
2024/01/11 02:52:00;;;;;;;;;52.25;45.25;;;;;;;;5104796;28;45402;-76
2024/01/11 02:54:26;;;;;;;;;47.50;42.25;;;;;;;;5104869;27;44840;-77
2024/01/11 02:56:51;;;;;;;;;37.50;33.75;;;;;;;;5105146;28;45271;-77
2024/01/11 02:59:16;;;;;;;;;47.50;43.50;;;;;;;;5085925;28;48453;-77
2024/01/11 03:01:41;;;;;;;;;48.50;42.75;;;;;;;;5104851;28;44645;-77
2024/01/11 03:04:06;;;;;;;;;44.50;38.25;;;;;;;;5086885;28;45263;-77
2024/01/11 03:06:31;;;;;;;;;51.00;43.50;;;;;;;;5104104;27;45200;-76
2024/01/11 03:08:57;;;;;;;;;38.50;35.50;;;;;;;;5086023;28;47340;-77
2024/01/11 03:11:22;;;;;;;;;31.50;29.00;;;;;;;;5086079;28;45294;-77
2024/01/11 03:13:47;;;;;;;;;43.25;41.25;;;;;;;;5104965;28;45214;-77
2024/01/11 03:16:13;;;;;;;;;43.25;37.75;;;;;;;;5104094;28;45204;-77
2024/01/11 03:18:39;;;;;;;;;52.00;44.25;;;;;;;;5104221;27;45140;-77
2024/01/11 03:21:04;;;;;;;;;46.25;41.25;;;;;;;;5103636;28;45205;-76
2024/01/11 03:23:29;;;;;;;;;40.75;39.00;;;;;;;;5104128;28;45172;-77
2024/01/11 03:25:54;;;;;;;;;41.75;38.25;;;;;;;;5103988;27;45490;-77
2024/01/11 03:28:19;;;;;;;;;48.25;42.25;;;;;;;;5103752;28;45189;-78
2024/01/11 03:30:44;;;;;;;;;47.50;39.25;;;;;;;;5086001;28;45220;-77
2024/01/11 03:33:10;;;;;;;;;45.00;39.00;;;;;;;;5103553;28;45229;-77
2024/01/11 03:35:35;;;;;;;;;39.00;37.25;;;;;;;;5084382;28;46159;-77
2024/01/11 03:38:00;;;;;;;;;44.00;38.00;;;;;;;;5084242;28;46170;-76
2024/01/11 03:40:26;;;;;;;;;44.25;42.25;;;;;;;;5102485;28;45224;-78
2024/01/11 03:42:51;;;;;;;;;52.25;43.25;;;;;;;;5104665;27;44702;-77
2024/01/11 03:45:20;;;;;;;;;54.75;43.50;;;;;;;;5086036;28;45544;-77
2024/01/11 03:47:46;;;;;;;;;51.00;42.00;;;;;;;;5103945;27;45312;-77
2024/01/11 03:50:11;;;;;;;;;46.00;42.00;;;;;;;;5103868;27;45362;-77
2024/01/11 03:52:36;;;;;;;;;45.25;41.75;;;;;;;;5102839;28;45320;-77
2024/01/11 03:55:01;;;;;;;;;52.00;43.75;;;;;;;;5086305;28;45463;-77
2024/01/11 03:57:26;;;;;;;;;36.25;33.00;;;;;;;;5111786;27;46123;-77
2024/01/11 03:59:52;;;;;;;;;50.75;42.50;;;;;;;;5106143;27;45252;-77
2024/01/11 04:02:17;;;;;;;;;42.00;38.75;;;;;;;;5106879;27;45289;-77
2024/01/11 04:04:42;;;;;;;;;42.25;40.25;;;;;;;;5106350;27;45307;-77
2024/01/11 04:07:07;;;;;;;;;43.75;40.50;;;;;;;;5106105;27;47281;-78
2024/01/11 04:09:32;;;;;;;;;47.75;40.75;;;;;;;;5105376;27;45232;-77
2024/01/11 04:11:58;;;;;;;;;46.75;41.00;;;;;;;;5124664;27;45160;-77
2024/01/11 04:14:23;;;;;;;;;38.00;35.50;;;;;;;;5106200;27;46055;-77
2024/01/11 04:16:48;;;;;;;;;41.25;38.00;;;;;;;;5106237;27;48658;-77
2024/01/11 04:19:13;;;;;;;;;40.25;37.75;;;;;;;;5107125;27;44732;-77
2024/01/11 04:21:38;;;;;;;;;44.00;40.50;;;;;;;;5103501;27;45376;-77
2024/01/11 04:24:05;;;;;;;;;40.75;37.50;;;;;;;;5122945;27;45190;-76
2024/01/11 04:26:30;;;;;;;;;43.75;37.00;;;;;;;;5123471;27;45080;-78
2024/01/11 04:28:58;;;;;;;;;40.00;32.00;;;;;;;;5105340;27;45181;-77
2024/01/11 04:31:23;;;;;;;;;41.75;39.75;;;;;;;;5105306;27;45271;-77
2024/01/11 04:33:48;;;;;;;;;43.75;40.00;;;;;;;;5122748;27;44660;-77
2024/01/11 04:36:13;;;;;;;;;50.50;39.75;;;;;;;;5121865;27;46145;-77
2024/01/11 04:38:39;;;;;;;;;46.75;42.25;;;;;;;;5122462;27;45242;-77
2024/01/11 04:41:08;;;;;;;;;52.50;42.50;;;;;;;;5103853;27;44726;-76
2024/01/11 04:43:35;;;;;;;;;47.75;38.25;;;;;;;;5122932;27;44649;-76
2024/01/11 04:46:00;;;;;;;;;39.25;37.25;;;;;;;;5103735;27;46105;-76
2024/01/11 04:48:25;;;;;;;;;65.75;53.75;;;;;;;;5104157;27;44614;-76
2024/01/11 04:50:50;;;;;;;;;84.00;63.75;;;;;;;;5121419;27;44587;-76
2024/01/11 04:53:16;;;;;;;;;78.25;61.75;;;;;;;;5121525;27;45219;-77
2024/01/11 04:55:41;;;;;;;;;75.75;59.25;;;;;;;;5102746;27;46154;-77
2024/01/11 04:58:06;;;;;;;;;77.00;60.75;;;;;;;;5107535;27;45199;-76
2024/01/11 05:00:31;;;;;;;;;66.00;53.50;;;;;;;;5101034;28;45606;-77
2024/01/11 05:02:56;;;;;;;;;51.00;42.75;;;;;;;;5099535;28;45433;-76
2024/01/11 05:05:22;;;;;;;;;62.00;50.00;;;;;;;;5099606;28;45374;-76
2024/01/11 05:07:47;;;;;;;;;67.25;53.50;;;;;;;;5083289;28;45358;-76
2024/01/11 05:10:12;;;;;;;;;69.25;55.00;;;;;;;;5099907;28;45292;-76
2024/01/11 05:12:38;;;;;;;;;57.50;44.25;;;;;;;;5100471;28;45266;-76
2024/01/11 05:15:03;;;;;;;;;52.25;42.75;;;;;;;;5099254;28;45887;-76
2024/01/11 05:17:28;;;;;;;;;48.50;42.50;;;;;;;;5100360;28;45362;-76
2024/01/11 05:19:54;;;;;;;;;40.50;38.50;;;;;;;;5099509;28;45287;-76
2024/01/11 05:22:19;;;;;;;;;38.25;37.75;;;;;;;;5099756;28;45327;-77
2024/01/11 05:24:44;;;;;;;;;38.00;36.75;;;;;;;;5101554;28;45326;-76
2024/01/11 05:27:09;;;;;;;;;45.75;40.50;;;;;;;;5100577;28;45437;-76
2024/01/11 05:29:34;;;;;;;;;45.75;41.25;;;;;;;;5081363;28;44724;-77
2024/01/11 05:31:59;;;;;;;;;41.50;37.75;;;;;;;;5098875;28;44768;-76
2024/01/11 05:34:25;;;;;;;;;50.25;45.00;;;;;;;;5100536;28;46635;-76
2024/01/11 05:36:50;;;;;;;;;72.25;55.75;;;;;;;;5099711;28;45329;-76
2024/01/11 05:39:15;;;;;;;;;52.00;45.25;;;;;;;;5099158;28;45334;-76
2024/01/11 05:41:43;;;;;;;;;65.50;52.75;;;;;;;;5098362;28;45319;-77
2024/01/11 05:44:08;;;;;;;;;59.25;47.50;;;;;;;;5079976;28;46324;-76
2024/01/11 05:46:34;;;;;;;;;48.75;40.75;;;;;;;;5098676;28;44613;-76
2024/01/11 05:48:59;;;;;;;;;47.50;43.00;;;;;;;;5081448;28;44725;-76
2024/01/11 05:51:24;;;;;;;;;43.00;38.25;;;;;;;;5077896;28;45330;-76
2024/01/11 05:53:49;;;;;;;;;45.25;41.00;;;;;;;;5079389;28;45159;-76
2024/01/11 05:56:14;;;;;;;;;49.00;43.75;;;;;;;;5075413;28;45304;-76
2024/01/11 05:58:40;;;;;;;;;38.50;34.75;;;;;;;;5093855;28;45332;-76
2024/01/11 06:01:05;;;;;;;;;44.50;40.25;;;;;;;;5093589;28;45201;-76
2024/01/11 06:03:33;;;;;;;;;34.25;34.25;;;;;;;;5093391;28;45240;-76
2024/01/11 06:05:59;;;;;;;;;49.75;40.75;;;;;;;;5095185;27;44655;-76
2024/01/11 06:08:25;;;;;;;;;43.75;39.75;;;;;;;;5095497;27;44719;-76
2024/01/11 06:10:50;;;;;;;;;51.50;43.25;;;;;;;;5094865;28;45289;-76
2024/01/11 06:13:15;;;;;;;;;38.75;32.50;;;;;;;;5091309;28;45292;-76
2024/01/11 06:15:40;;;;;;;;;42.50;37.00;;;;;;;;5100669;28;45352;-77
2024/01/11 06:18:06;;;;;;;;;46.75;39.25;;;;;;;;5099168;28;45369;-76
2024/01/11 06:20:31;;;;;;;;;44.75;40.50;;;;;;;;5100724;27;45586;-76
2024/01/11 06:22:56;;;;;;;;;46.25;40.25;;;;;;;;5103005;28;45331;-77
2024/01/11 06:25:21;;;;;;;;;29.50;28.25;;;;;;;;5079818;28;45318;-77
2024/01/11 06:27:46;;;;;;;;;42.25;40.75;;;;;;;;5072014;28;45268;-78
2024/01/11 06:30:12;;;;;;;;;50.00;43.75;;;;;;;;5076642;28;45271;-78
2024/01/11 06:32:37;;;;;;;;;56.25;45.00;;;;;;;;5081994;28;46213;-77
2024/01/11 06:35:02;;;;;;;;;47.75;42.75;;;;;;;;5079901;28;45205;-77
2024/01/11 06:37:28;;;;;;;;;43.00;40.75;;;;;;;;5083000;28;44592;-77
2024/01/11 06:39:53;;;;;;;;;63.75;52.25;;;;;;;;5081472;28;45546;-78
2024/01/11 06:42:18;;;;;;;;;75.00;59.50;;;;;;;;5082536;28;47229;-79
2024/01/11 06:44:43;;;;;;;;;53.50;46.50;;;;;;;;5082683;28;45327;-79
2024/01/11 06:47:08;;;;;;;;;44.00;39.25;;;;;;;;5084197;28;45342;-79
2024/01/11 06:49:34;;;;;;;;;50.75;39.00;;;;;;;;5084314;28;45303;-78
2024/01/11 06:51:59;;;;;;;;;44.00;41.25;;;;;;;;5077576;28;46522;-78
2024/01/11 06:54:24;;;;;;;;;55.75;43.25;;;;;;;;5084075;28;45452;-79
2024/01/11 06:56:49;;;;;;;;;44.00;39.75;;;;;;;;5091623;28;45234;-78
2024/01/11 06:59:14;;;;;;;;;40.50;37.00;;;;;;;;5082892;28;45347;-77
2024/01/11 07:01:40;;;;;;;;;42.50;38.75;;;;;;;;5082374;28;46206;-78
2024/01/11 07:04:05;;;;;;;;;55.50;43.00;;;;;;;;5082113;28;44726;-77
2024/01/11 07:06:30;;;;;;;;;36.25;35.75;;;;;;;;5088712;28;45157;-77
2024/01/11 07:08:55;;;;;;;;;46.00;39.50;;;;;;;;5103917;28;45346;-76
2024/01/11 07:11:20;;;;;;;;;41.25;37.00;;;;;;;;5095466;27;46158;-77
2024/01/11 07:13:46;;;;;;;;;38.50;37.50;;;;;;;;5092752;28;45523;-78
2024/01/11 07:16:11;;;;;;;;;42.50;39.50;;;;;;;;5096033;27;45534;-76
2024/01/11 07:18:36;;;;;;;;;38.00;36.25;;;;;;;;5082703;28;45161;-77
2024/01/11 07:21:02;;;;;;;;;46.75;40.25;;;;;;;;5081129;28;45569;-77
2024/01/11 07:23:27;;;;;;;;;42.50;39.75;;;;;;;;5076668;28;45346;-76
2024/01/11 07:25:54;;;;;;;;;35.50;34.25;;;;;;;;5062421;28;45355;-77
2024/01/11 07:28:24;;;;;;;;;43.25;36.25;;;;;;;;5076418;28;47110;-76
2024/01/11 07:30:49;;;;;;;;;34.00;33.00;;;;;;;;5075626;28;46209;-77
2024/01/11 07:33:15;;;;;;;;;42.00;40.00;;;;;;;;5080200;28;44633;-76
2024/01/11 07:35:40;;;;;;;;;36.25;33.25;;;;;;;;5081177;28;45310;-77
2024/01/11 07:38:05;;;;;;;;;40.25;38.50;;;;;;;;5082657;28;45023;-76
2024/01/11 07:40:32;;;;;;;;;47.50;43.25;;;;;;;;5081359;28;45144;-76
2024/01/11 07:42:57;;;;;;;;;45.00;43.00;;;;;;;;5101680;28;44709;-76
2024/01/11 07:45:23;;;;;;;;;40.00;39.50;;;;;;;;5102336;28;44745;-76
2024/01/11 07:47:49;;;;;;;;;50.50;41.75;;;;;;;;5101798;28;46699;-75
2024/01/11 07:50:14;;;;;;;;;48.25;42.75;;;;;;;;5102471;27;46283;-77
2024/01/11 07:52:42;;;;;;;;;40.25;38.25;;;;;;;;5100051;28;44765;-75
2024/01/11 07:55:11;;;;;;;;;44.00;39.75;;;;;;;;5085283;28;44665;-76
2024/01/11 07:57:39;;;;;;;;;47.50;43.25;;;;;;;;5103647;27;44783;-77
2024/01/11 08:00:06;;;;;;;;;46.50;40.75;;;;;;;;5100761;28;45287;-76
2024/01/11 08:02:31;;;;;;;;;32.75;28.50;;;;;;;;5088646;28;44732;-76
2024/01/11 08:04:56;;;;;;;;;47.25;42.75;;;;;;;;5069993;28;45345;-76
2024/01/11 08:07:22;;;;;;;;;42.50;38.50;;;;;;;;5069889;28;45229;-77
2024/01/11 08:09:47;;;;;;;;;49.00;41.25;;;;;;;;5076258;28;45574;-77
2024/01/11 08:12:13;;;;;;;;;44.25;38.25;;;;;;;;5093672;28;44802;-77
2024/01/11 08:14:38;;;;;;;;;40.25;34.50;;;;;;;;5078509;28;44590;-77
2024/01/11 08:17:04;;;;;;;;;39.25;33.50;;;;;;;;5101222;27;44760;-76
2024/01/11 08:19:30;;;;;;;;;49.25;43.50;;;;;;;;5077178;28;46990;-76
2024/01/11 08:21:56;;;;;;;;;38.75;36.75;;;;;;;;5084266;28;45226;-76
2024/01/11 08:24:21;;;;;;;;;44.25;39.50;;;;;;;;5101053;28;45307;-77
2024/01/11 08:26:47;;;;;;;;;46.25;40.75;;;;;;;;5098869;28;45338;-78
2024/01/11 08:29:13;;;;;;;;;45.25;41.75;;;;;;;;5082642;28;46994;-76
2024/01/11 08:31:38;;;;;;;;;55.50;48.25;;;;;;;;5103855;28;45410;-77
2024/01/11 08:34:04;;;;;;;;;48.50;42.50;;;;;;;;5090428;28;45343;-77
2024/01/11 08:36:35;;;;;;;;;48.50;40.75;;;;;;;;5073310;28;45323;-75
2024/01/11 08:39:05;;;;;;;;;48.25;41.25;;;;;;;;5074002;28;45255;-75
2024/01/11 08:41:31;;;;;;;;;48.75;41.75;;;;;;;;5074931;28;45449;-75
2024/01/11 08:43:56;;;;;;;;;39.75;37.75;;;;;;;;5077879;28;45329;-76
2024/01/11 08:46:27;;;;;;;;;46.00;40.25;;;;;;;;5077276;28;45294;-76
2024/01/11 08:48:54;;;;;;;;;50.50;43.00;;;;;;;;5078663;28;45515;-77
2024/01/11 08:51:19;;;;;;;;;44.50;40.75;;;;;;;;5076586;28;44784;-76
2024/01/11 08:53:44;;;;;;;;;45.00;39.75;;;;;;;;5097074;28;45775;-76
2024/01/11 08:56:10;;;;;;;;;53.00;43.75;;;;;;;;5095335;28;45358;-76
2024/01/11 08:58:36;;;;;;;;;61.00;47.50;;;;;;;;5115688;27;45589;-75
2024/01/11 09:01:01;;;;;;;;;52.75;44.75;;;;;;;;5097385;27;45223;-77
2024/01/11 09:03:26;;;;;;;;;46.75;40.00;;;;;;;;5117358;27;45323;-75
2024/01/11 09:05:56;;;;;;;;;51.50;43.75;;;;;;;;5099074;27;46260;-77
2024/01/11 09:08:22;;;;;;;;;49.00;43.50;;;;;;;;5095920;28;45109;-76
2024/01/11 09:10:48;;;;;;;;;51.25;46.25;;;;;;;;5086783;28;45394;-77
2024/01/11 09:13:13;;;;;;;;;57.50;44.00;;;;;;;;5081389;28;45330;-77
2024/01/11 09:15:38;;;;;;;;;50.50;42.00;;;;;;;;5097272;27;44974;-78
2024/01/11 09:18:03;;;;;;;;;47.50;44.25;;;;;;;;5103719;27;45228;-78
2024/01/11 09:20:28;;;;;;;;;55.00;48.00;;;;;;;;5159014;22;44793;-78
2024/01/11 09:22:54;;;;;;;;;60.75;48.00;;;;;;;;5023871;28;45273;-78
2024/01/11 09:25:19;;;;;;;;;60.75;49.75;;;;;;;;5023913;28;46912;-77
2024/01/11 09:27:44;;;;;;;;;57.75;46.50;;;;;;;;5040193;28;46280;-78
2024/01/11 09:30:09;;;;;;;;;46.25;41.50;;;;;;;;5016369;28;45242;-78
2024/01/11 09:32:35;;;;;;;;;56.25;46.00;;;;;;;;5021536;28;45274;-77
2024/01/11 09:35:00;;;;;;;;;49.75;42.50;;;;;;;;5010837;28;46459;-78
2024/01/11 09:37:26;;;;;;;;;48.50;43.00;;;;;;;;5034539;28;45391;-78
2024/01/11 09:39:51;;;;;;;;;50.25;43.00;;;;;;;;5059645;28;44623;-77
2024/01/11 09:42:18;;;;;;;;;52.25;43.75;;;;;;;;5062333;28;44693;-78
2024/01/11 09:44:43;;;;;;;;;53.75;44.75;;;;;;;;5060005;28;45335;-78
2024/01/11 09:47:10;;;;;;;;;59.25;43.50;;;;;;;;5061137;28;45999;-78
2024/01/11 09:49:37;;;;;;;;;59.50;48.50;;;;;;;;5315559;22;46219;-76
2024/01/11 09:52:04;;;;;;;;;60.75;47.25;;;;;;;;5028940;28;45443;-78
2024/01/11 09:54:29;;;;;;;;;59.50;47.25;;;;;;;;5025027;28;45349;-77
2024/01/11 09:56:55;;;;;;;;;46.25;43.25;;;;;;;;5023511;28;46525;-77
2024/01/11 09:59:23;;;;;;;;;53.50;43.25;;;;;;;;5023701;28;45324;-78
2024/01/11 10:01:49;;;;;;;;;53.50;46.50;;;;;;;;5024993;28;45368;-76
2024/01/11 10:04:15;;;;;;;;;59.50;47.00;;;;;;;;5020462;28;45563;-77
2024/01/11 10:06:41;;;;;;;;;49.50;40.75;;;;;;;;5033434;28;45543;-77
2024/01/11 10:09:07;;;;;;;;;47.00;39.50;;;;;;;;5017726;28;44845;-77
2024/01/11 10:11:34;;;;;;;;;57.00;47.75;;;;;;;;5029458;28;45440;-77
2024/01/11 10:14:00;;;;;;;;;52.75;44.75;;;;;;;;5023979;28;45223;-78
2024/01/11 10:16:27;;;;;;;;;55.25;47.00;;;;;;;;5017935;28;45321;-77
2024/01/11 10:18:55;;;;;;;;;50.00;41.75;;;;;;;;5019681;28;45326;-78
2024/01/11 10:21:21;;;;;;;;;51.25;42.75;;;;;;;;5022597;28;45288;-77
2024/01/11 10:23:46;;;;;;;;;55.25;47.50;;;;;;;;5006084;28;47109;-77
2024/01/11 10:26:11;;;;;;;;;64.25;48.75;;;;;;;;5022384;28;45428;-79
2024/01/11 10:28:37;;;;;;;;;57.25;45.25;;;;;;;;4999793;28;45763;-78
2024/01/11 10:31:03;;;;;;;;;59.75;48.25;;;;;;;;5012594;28;45245;-78
2024/01/11 10:33:28;;;;;;;;;59.50;49.25;;;;;;;;5021756;28;45373;-79
2024/01/11 10:35:53;;;;;;;;;60.75;47.25;;;;;;;;5004983;28;48311;-79
2024/01/11 10:38:21;;;;;;;;;54.50;47.25;;;;;;;;5018740;28;45390;-79
2024/01/11 10:40:46;;;;;;;;;50.75;45.00;;;;;;;;5018020;28;45474;-77
2024/01/11 10:43:12;;;;;;;;;53.50;43.75;;;;;;;;5006367;28;47682;-77
2024/01/11 10:45:41;;;;;;;;;58.25;48.50;;;;;;;;5038125;28;45249;-77
2024/01/11 10:48:07;;;;;;;;;56.75;44.50;;;;;;;;5033462;28;45289;-78
2024/01/11 10:50:39;;;;;;;;;58.25;47.50;;;;;;;;5036659;28;45365;-78
2024/01/11 10:53:20;;;;;;;;;57.75;50.25;;;;;;;;5007980;28;46190;-78
2024/01/11 10:55:46;;;;;;;;;50.25;44.50;;;;;;;;5011702;28;47070;-80
2024/01/11 10:58:12;;;;;;;;;63.25;49.75;;;;;;;;5022282;28;45333;-77
2024/01/11 11:00:37;;;;;;;;;57.50;48.50;;;;;;;;5020885;28;45415;-78
2024/01/11 11:03:04;;;;;;;;;53.50;46.00;;;;;;;;5021473;28;45254;-78
2024/01/11 11:05:30;;;;;;;;;52.00;45.50;;;;;;;;5022484;28;46146;-77
2024/01/11 11:07:56;;;;;;;;;62.00;50.00;;;;;;;;5003313;28;45366;-77
2024/01/11 11:10:21;;;;;;;;;60.00;47.75;;;;;;;;5021393;28;45289;-77
2024/01/11 11:12:48;;;;;;;;;47.00;42.75;;;;;;;;5002613;28;46225;-77
2024/01/11 11:15:14;;;;;;;;;61.75;51.25;;;;;;;;5022740;28;45320;-77
2024/01/11 11:17:40;;;;;;;;;59.00;48.00;;;;;;;;5025050;28;45272;-77
2024/01/11 11:20:11;;;;;;;;;57.00;46.50;;;;;;;;5023227;28;45322;-76
2024/01/11 11:22:36;;;;;;;;;52.25;43.00;;;;;;;;5024408;28;45560;-77
2024/01/11 11:25:23;;;;;;;;;56.50;47.00;;;;;;;;5002512;28;48305;-76
2024/01/11 11:27:48;;;;;;;;;55.50;46.75;;;;;;;;5025691;28;45321;-77
2024/01/11 11:30:13;;;;;;;;;45.50;40.75;;;;;;;;5008770;28;44706;-77
2024/01/11 11:32:43;;;;;;;;;51.75;44.75;;;;;;;;5021241;28;45459;-77
2024/01/11 11:35:08;;;;;;;;;61.75;49.00;;;;;;;;5021006;28;45361;-77
2024/01/11 11:37:35;;;;;;;;;56.00;45.50;;;;;;;;5020453;28;45300;-77
2024/01/11 11:40:01;;;;;;;;;57.00;49.00;;;;;;;;5002646;28;45294;-77
2024/01/11 11:42:30;;;;;;;;;56.75;48.75;;;;;;;;5023379;28;45574;-78
2024/01/11 11:44:55;;;;;;;;;54.25;46.25;;;;;;;;5009463;28;47418;-77
2024/01/11 11:47:21;;;;;;;;;61.00;49.25;;;;;;;;5026475;28;45467;-79
2024/01/11 11:49:53;;;;;;;;;52.75;46.00;;;;;;;;5023347;28;45364;-78
2024/01/11 11:52:18;;;;;;;;;44.75;39.75;;;;;;;;5019319;28;45502;-80
2024/01/11 11:54:43;;;;;;;;;58.00;46.25;;;;;;;;5019531;28;46312;-78
2024/01/11 11:57:09;;;;;;;;;54.75;47.00;;;;;;;;5000226;28;45267;-78
2024/01/11 11:59:36;;;;;;;;;55.75;45.25;;;;;;;;5017093;28;45823;-80
2024/01/11 12:02:01;;;;;;;;;40.50;36.75;;;;;;;;5028500;28;45368;-78
2024/01/11 12:04:26;;;;;;;;;56.75;45.00;;;;;;;;5036158;28;46663;-78
2024/01/11 12:06:52;;;;;;;;;61.50;48.50;;;;;;;;5030557;28;45440;-79
2024/01/11 12:09:20;;;;;;;;;67.00;50.75;;;;;;;;5008743;28;45313;-79
2024/01/11 12:11:45;;;;;;;;;59.00;49.50;;;;;;;;5022517;28;45978;-79
2024/01/11 12:14:10;;;;;;;;;67.75;54.00;;;;;;;;5002786;28;47248;-80
2024/01/11 12:16:36;;;;;;;;;62.75;50.00;;;;;;;;5002597;28;45397;-80
2024/01/11 12:19:01;;;;;;;;;56.50;47.25;;;;;;;;5020856;28;45302;-79
2024/01/11 12:21:26;;;;;;;;;56.75;48.00;;;;;;;;5024679;28;45443;-79
2024/01/11 12:23:52;;;;;;;;;58.00;49.00;;;;;;;;5008149;28;48291;-78
2024/01/11 12:26:21;;;;;;;;;58.00;48.00;;;;;;;;5034083;28;45285;-79
2024/01/11 12:28:46;;;;;;;;;58.50;47.75;;;;;;;;5035210;28;45443;-78
2024/01/11 12:31:12;;;;;;;;;54.50;46.50;;;;;;;;5038347;28;45384;-78
2024/01/11 12:33:38;;;;;;;;;58.50;45.25;;;;;;;;5035461;28;45597;-79
2024/01/11 12:36:04;;;;;;;;;58.25;43.75;;;;;;;;5029297;28;45414;-79
2024/01/11 12:38:29;;;;;;;;;56.00;44.75;;;;;;;;5029004;28;45286;-79
2024/01/11 12:40:54;;;;;;;;;55.75;46.25;;;;;;;;5025680;28;45352;-79
2024/01/11 12:43:20;;;;;;;;;46.75;41.50;;;;;;;;5021318;28;45473;-79
2024/01/11 12:45:45;;;;;;;;;48.25;41.50;;;;;;;;5019396;28;45415;-78
2024/01/11 12:48:13;;;;;;;;;57.00;45.50;;;;;;;;5024467;28;45302;-79
2024/01/11 12:50:39;;;;;;;;;59.00;45.25;;;;;;;;5031944;28;45352;-79
2024/01/11 12:53:04;;;;;;;;;56.25;46.00;;;;;;;;5009124;28;47716;-80
2024/01/11 12:55:29;;;;;;;;;51.00;40.60;;;;;;;;5035517;28;45226;-79
2024/01/11 12:58:07;;;;;;;;;52.50;43.75;;;;;;;;4999529;28;45471;-79
2024/01/11 13:00:32;;;;;;;;;52.25;43.00;;;;;;;;5006773;28;46951;-79
2024/01/11 13:02:57;;;;;;;;;54.25;45.00;;;;;;;;5024522;28;45479;-78
2024/01/11 13:05:23;;;;;;;;;58.50;46.00;;;;;;;;5025146;28;45482;-78
2024/01/11 13:07:48;;;;;;;;;51.50;44.50;;;;;;;;5027813;28;45437;-79
2024/01/11 13:10:14;;;;;;;;;55.25;46.00;;;;;;;;5025099;28;45405;-79
2024/01/11 13:12:39;;;;;;;;;46.75;41.00;;;;;;;;5023986;28;45399;-78
2024/01/11 13:15:05;;;;;;;;;47.25;40.00;;;;;;;;5021612;28;45317;-80
2024/01/11 13:17:30;;;;;;;;;49.00;42.75;;;;;;;;5019963;28;45364;-80
2024/01/11 13:19:56;;;;;;;;;55.50;44.50;;;;;;;;5023722;28;45646;-80
2024/01/11 13:22:21;;;;;;;;;52.50;43.50;;;;;;;;5022272;28;45354;-80
2024/01/11 13:24:46;;;;;;;;;53.75;43.75;;;;;;;;5020364;28;45220;-79
2024/01/11 13:27:11;;;;;;;;;49.75;41.75;;;;;;;;5020665;28;45321;-80
2024/01/11 13:29:36;;;;;;;;;50.00;43.00;;;;;;;;5020358;28;45621;-80
2024/01/11 13:32:02;;;;;;;;;47.50;40.00;;;;;;;;5020753;28;46060;-79
2024/01/11 13:34:27;;;;;;;;;54.50;43.75;;;;;;;;5000698;28;45595;-79
2024/01/11 13:36:52;;;;;;;;;45.00;40.25;;;;;;;;5018907;28;45181;-80
2024/01/11 13:39:18;;;;;;;;;56.00;44.25;;;;;;;;5005198;28;46005;-80
2024/01/11 13:41:44;;;;;;;;;48.50;41.50;;;;;;;;5001660;28;47140;-80
2024/01/11 13:44:09;;;;;;;;;57.00;47.75;;;;;;;;5022572;28;45565;-80
2024/01/11 13:46:35;;;;;;;;;54.75;43.75;;;;;;;;5024465;28;45211;-80
2024/01/11 13:49:00;;;;;;;;;53.75;43.50;;;;;;;;5017622;28;45415;-80
2024/01/11 13:51:25;;;;;;;;;52.50;43.00;;;;;;;;5002535;28;47318;-81
2024/01/11 13:53:50;;;;;;;;;57.75;45.00;;;;;;;;5018975;28;45831;-80
2024/01/11 13:56:15;;;;;;;;;53.25;44.75;;;;;;;;5022287;28;45338;-82
2024/01/11 13:58:41;;;;;;;;;55.25;44.50;;;;;;;;5018702;28;46309;-80
2024/01/11 14:01:07;;;;;;;;;51.75;43.00;;;;;;;;5002374;28;48133;-81
2024/01/11 14:03:32;;;;;;;;;53.25;43.75;;;;;;;;5001139;28;45440;-81
2024/01/11 14:05:58;;;;;;;;;54.50;44.00;;;;;;;;5018347;28;45676;-80
2024/01/11 14:08:23;;;;;;;;;55.50;45.00;;;;;;;;5018431;28;45247;-78